createdAt,value
2019-02-23T00:00:08.583Z,22.13
2019-02-23T00:02:34.678Z,19.50
2019-02-23T00:05:00.767Z,16.00
2019-02-23T00:07:26.848Z,20.50
2019-02-23T00:09:52.932Z,14.33
2019-02-23T00:12:19.000Z,15.65
2019-02-23T00:14:45.097Z,15.10
2019-02-23T00:17:11.260Z,16.48
2019-02-23T00:19:37.336Z,15.70
2019-02-23T00:22:03.431Z,17.82
2019-02-23T00:24:29.491Z,14.20
2019-02-23T00:26:55.589Z,16.32
2019-02-23T00:29:21.659Z,19.62
2019-02-23T00:31:47.759Z,12.90
2019-02-23T00:34:13.847Z,15.58
2019-02-23T00:36:39.916Z,17.60
2019-02-23T00:39:06.103Z,14.75
2019-02-23T00:41:32.188Z,18.02
2019-02-23T00:47:26.755Z,17.70
2019-02-23T00:49:52.851Z,17.12
2019-02-23T00:52:18.962Z,20.52
2019-02-23T00:54:45.156Z,14.80
2019-02-23T00:57:11.322Z,17.50
2019-02-23T00:59:37.390Z,11.63
2019-02-23T01:02:03.459Z,16.10
2019-02-23T01:04:29.579Z,17.10
2019-02-23T01:06:56.472Z,19.57
2019-02-23T01:09:22.559Z,15.40
2019-02-23T01:11:48.627Z,18.40
2019-02-23T01:14:14.732Z,12.05
2019-02-23T01:16:40.796Z,14.07
2019-02-23T01:19:06.883Z,15.32
2019-02-23T01:21:32.959Z,18.30
2019-02-23T01:23:59.059Z,12.63
2019-02-23T01:26:25.136Z,16.32
2019-02-23T01:28:51.230Z,12.40
2019-02-23T01:31:17.400Z,13.35
2019-02-23T01:33:43.488Z,13.35
2019-02-23T01:36:09.543Z,14.38
2019-02-23T01:38:35.619Z,12.88
2019-02-23T01:41:01.690Z,14.45
2019-02-23T01:43:27.761Z,14.18
2019-02-23T01:45:53.848Z,15.53
2019-02-23T01:48:19.927Z,20.08
2019-02-23T01:50:46.028Z,14.30
2019-02-23T01:53:12.212Z,13.83
2019-02-23T01:55:38.323Z,14.58
2019-02-23T01:58:04.394Z,12.23
2019-02-23T02:00:31.286Z,13.90
2019-02-23T02:02:57.390Z,19.07
2019-02-23T02:05:23.471Z,14.07
2019-02-23T02:07:49.542Z,14.93
2019-02-23T02:10:16.251Z,14.90
2019-02-23T02:12:42.531Z,16.60
2019-02-23T02:15:11.115Z,13.88
2019-02-23T02:17:37.182Z,18.37
2019-02-23T02:20:11.060Z,14.40
2019-02-23T02:22:32.050Z,14.30
2019-02-23T02:24:58.131Z,19.02
2019-02-23T02:27:24.198Z,15.58
2019-02-23T02:29:50.318Z,18.12
2019-02-23T02:32:16.442Z,15.98
2019-02-23T02:34:42.523Z,16.80
2019-02-23T02:37:08.580Z,17.10
2019-02-23T02:39:34.675Z,19.30
2019-02-23T02:42:00.804Z,17.17
2019-02-23T02:44:26.872Z,14.58
2019-02-23T02:46:52.948Z,16.12
2019-02-23T02:49:19.028Z,19.12
2019-02-23T02:51:45.214Z,16.90
2019-02-23T02:54:11.282Z,18.60
2019-02-23T02:56:37.471Z,21.62
2019-02-23T02:59:03.536Z,18.75
2019-02-23T03:01:29.622Z,17.85
2019-02-23T03:03:55.688Z,19.50
2019-02-23T03:06:21.771Z,21.30
2019-02-23T03:08:47.845Z,19.55
2019-02-23T03:11:13.920Z,19.10
2019-02-23T03:13:39.978Z,18.55
2019-02-23T03:16:06.066Z,21.52
2019-02-23T03:18:32.146Z,14.87
2019-02-23T03:20:58.311Z,20.90
2019-02-23T03:23:24.399Z,18.27
2019-02-23T03:25:50.507Z,17.30
2019-02-23T03:28:16.662Z,19.30
2019-02-23T03:30:42.764Z,24.30
2019-02-23T03:33:08.912Z,24.55
2019-02-23T03:35:34.991Z,17.52
2019-02-23T03:38:01.065Z,16.55
2019-02-23T03:40:27.149Z,20.88
2019-02-23T03:42:53.221Z,16.97
2019-02-23T03:45:19.302Z,16.57
2019-02-23T03:47:45.380Z,16.67
2019-02-23T03:50:11.455Z,20.80
2019-02-23T03:52:37.567Z,17.32
2019-02-23T03:55:04.153Z,18.65
2019-02-23T03:57:30.239Z,21.45
2019-02-23T03:59:56.304Z,14.63
2019-02-23T04:02:22.430Z,19.77
2019-02-23T04:04:48.495Z,18.30
2019-02-23T04:07:14.696Z,17.00
2019-02-23T04:09:40.759Z,15.50
2019-02-23T04:12:06.854Z,19.90
2019-02-23T04:14:32.927Z,16.23
2019-02-23T04:16:59.004Z,19.67
2019-02-23T04:19:25.075Z,15.98
2019-02-23T04:21:51.159Z,14.98
2019-02-23T04:24:17.223Z,16.55
2019-02-23T04:26:43.310Z,14.38
2019-02-23T04:29:09.389Z,16.27
2019-02-23T04:31:35.466Z,15.65
2019-02-23T04:34:01.536Z,13.85
2019-02-23T04:36:27.619Z,15.38
2019-02-23T04:38:53.704Z,16.90
2019-02-23T04:41:19.798Z,18.80
2019-02-23T04:43:45.892Z,15.45
2019-02-23T04:46:11.979Z,15.53
2019-02-23T04:48:38.021Z,16.00
2019-02-23T04:51:13.989Z,24.72
2019-02-23T04:53:32.063Z,13.32
2019-02-23T04:55:58.115Z,14.50
2019-02-23T04:58:24.214Z,18.45
2019-02-23T05:00:50.265Z,12.65
2019-02-23T05:03:16.321Z,13.18
2019-02-23T05:05:42.387Z,11.30
2019-02-23T05:08:08.458Z,14.45
2019-02-23T05:10:34.571Z,8.68
2019-02-23T05:13:00.676Z,12.25
2019-02-23T05:15:26.816Z,13.60
2019-02-23T05:17:55.434Z,13.70
2019-02-23T05:20:20.851Z,11.50
2019-02-23T05:22:46.933Z,13.72
2019-02-23T05:25:13.023Z,14.23
2019-02-23T05:27:39.185Z,16.42
2019-02-23T05:30:08.467Z,11.33
2019-02-23T05:32:34.681Z,17.57
2019-02-23T05:35:00.801Z,10.32
2019-02-23T05:37:26.937Z,14.70
2019-02-23T05:39:53.002Z,9.60
2019-02-23T05:42:19.122Z,11.03
2019-02-23T05:44:45.247Z,10.50
2019-02-23T05:47:11.432Z,10.30
2019-02-23T05:49:37.502Z,12.47
2019-02-23T05:52:03.598Z,14.35
2019-02-23T05:54:29.687Z,11.30
2019-02-23T05:56:55.753Z,11.18
2019-02-23T05:59:21.835Z,14.68
2019-02-23T06:01:47.909Z,11.60
2019-02-23T06:04:13.990Z,11.20
2019-02-23T06:06:40.072Z,9.13
2019-02-23T06:09:06.241Z,10.43
2019-02-23T06:11:32.315Z,12.93
2019-02-23T06:13:58.411Z,11.05
2019-02-23T06:16:24.480Z,9.58
2019-02-23T06:18:50.566Z,7.65
2019-02-23T06:21:16.714Z,10.05
2019-02-23T06:23:42.802Z,8.68
2019-02-23T06:26:08.877Z,10.90
2019-02-23T06:28:34.934Z,7.87
2019-02-23T06:31:01.039Z,7.60
2019-02-23T06:33:27.098Z,9.95
2019-02-23T06:35:53.190Z,9.55
2019-02-23T06:38:19.259Z,8.48
2019-02-23T06:40:45.342Z,8.20
2019-02-23T06:43:11.427Z,6.95
2019-02-23T06:45:37.509Z,6.95
2019-02-23T06:48:03.691Z,12.13
2019-02-23T06:50:29.776Z,9.78
2019-02-23T06:53:09.202Z,7.70
2019-02-23T06:55:35.299Z,6.25
2019-02-23T06:58:01.664Z,6.35
2019-02-23T07:00:27.726Z,6.95
2019-02-23T07:02:53.811Z,7.05
2019-02-23T07:05:19.875Z,7.87
2019-02-23T07:07:46.064Z,6.55
2019-02-23T07:10:12.981Z,8.85
2019-02-23T07:12:39.058Z,6.50
2019-02-23T07:15:07.147Z,6.12
2019-02-23T07:17:33.308Z,7.17
2019-02-23T07:19:59.391Z,7.30
2019-02-23T07:22:25.459Z,8.40
2019-02-23T07:24:51.553Z,9.00
2019-02-23T07:27:17.618Z,6.97
2019-02-23T07:29:43.682Z,6.35
2019-02-23T07:32:09.763Z,8.25
2019-02-23T07:34:35.835Z,8.78
2019-02-23T07:37:01.934Z,6.80
2019-02-23T07:39:27.995Z,8.60
2019-02-23T07:41:54.071Z,7.00
2019-02-23T07:44:20.132Z,7.55
2019-02-23T07:46:46.207Z,4.53
2019-02-23T07:49:12.286Z,8.20
2019-02-23T07:51:38.390Z,6.30
2019-02-23T07:54:04.475Z,7.50
2019-02-23T07:56:30.563Z,5.42
2019-02-23T07:58:56.627Z,6.72
2019-02-23T08:01:22.695Z,8.18
2019-02-23T08:03:48.779Z,10.25
2019-02-23T08:06:14.841Z,8.88
2019-02-23T08:08:40.935Z,8.25
2019-02-23T08:11:06.991Z,9.80
2019-02-23T08:13:33.055Z,10.70
2019-02-23T08:15:59.155Z,9.58
2019-02-23T08:18:25.227Z,6.50
2019-02-23T08:20:51.323Z,9.25
2019-02-23T08:23:17.415Z,9.10
2019-02-23T08:25:43.576Z,10.63
2019-02-23T08:28:09.658Z,5.85
2019-02-23T08:30:35.900Z,9.08
2019-02-23T08:33:02.079Z,6.90
2019-02-23T08:35:28.144Z,6.47
2019-02-23T08:37:54.251Z,5.42
2019-02-23T08:40:20.319Z,9.05
2019-02-23T08:42:46.465Z,7.92
2019-02-23T08:45:12.674Z,6.12
2019-02-23T08:47:38.868Z,7.92
2019-02-23T08:50:08.431Z,10.30
2019-02-23T08:52:34.534Z,7.20
2019-02-23T08:55:00.623Z,6.70
2019-02-23T08:57:26.807Z,6.65
2019-02-23T08:59:52.875Z,6.35
2019-02-23T09:02:18.963Z,6.12
2019-02-23T09:04:45.126Z,7.83
2019-02-23T09:07:11.224Z,9.00
2019-02-23T09:09:37.291Z,10.05
2019-02-23T09:12:03.378Z,8.03
2019-02-23T09:14:29.567Z,5.75
2019-02-23T09:16:55.631Z,5.67
2019-02-23T09:19:21.698Z,5.47
2019-02-23T09:21:47.784Z,5.58
2019-02-23T09:24:13.848Z,6.53
2019-02-23T09:26:40.015Z,5.80
2019-02-23T09:29:06.268Z,8.20
2019-02-23T09:31:32.351Z,6.67
2019-02-23T09:33:58.524Z,7.47
2019-02-23T09:36:24.607Z,8.38
2019-02-23T09:38:50.704Z,5.92
2019-02-23T09:41:16.878Z,7.25
2019-02-23T09:43:43.003Z,4.80
2019-02-23T09:46:09.068Z,7.40
2019-02-23T09:48:35.157Z,7.50
2019-02-23T09:51:01.247Z,7.28
2019-02-23T09:53:27.367Z,7.45
2019-02-23T09:55:53.519Z,7.67
2019-02-23T09:58:19.587Z,6.15
2019-02-23T10:00:45.723Z,5.35
2019-02-23T10:03:11.789Z,5.75
2019-02-23T10:05:38.307Z,5.67
2019-02-23T10:08:04.543Z,7.08
2019-02-23T10:10:30.607Z,6.15
2019-02-23T10:12:56.710Z,10.58
2019-02-23T10:15:22.937Z,5.90
2019-02-23T10:17:49.007Z,7.12
2019-02-23T10:20:15.095Z,6.03
2019-02-23T10:22:41.159Z,4.95
2019-02-23T10:25:07.338Z,8.03
2019-02-23T10:27:33.402Z,5.08
2019-02-23T10:29:59.472Z,3.80
2019-02-23T10:32:25.626Z,4.60
2019-02-23T10:34:51.699Z,5.70
2019-02-23T10:37:17.779Z,4.90
2019-02-23T10:39:43.842Z,5.25
2019-02-23T10:42:09.912Z,5.17
2019-02-23T10:44:36.005Z,4.90
2019-02-23T10:47:02.075Z,3.40
2019-02-23T10:49:28.156Z,4.33
2019-02-23T10:51:54.231Z,4.80
2019-02-23T10:54:20.282Z,4.12
2019-02-23T10:56:46.362Z,3.83
2019-02-23T10:59:12.423Z,4.15
2019-02-23T11:01:38.623Z,4.65
2019-02-23T11:04:04.795Z,4.62
2019-02-23T11:06:30.914Z,5.05
2019-02-23T11:08:57.052Z,4.85
2019-02-23T11:11:23.208Z,5.42
2019-02-23T11:13:49.325Z,3.90
2019-02-23T11:16:15.491Z,10.32
2019-02-23T11:18:41.552Z,5.20
2019-02-23T11:21:08.027Z,4.80
2019-02-23T11:23:43.690Z,5.10
2019-02-23T11:26:02.383Z,9.58
2019-02-23T11:28:28.545Z,3.60
2019-02-23T11:30:54.598Z,3.98
2019-02-23T11:33:20.670Z,4.53
2019-02-23T11:35:46.821Z,3.85
2019-02-23T11:38:12.879Z,4.10
2019-02-23T11:40:38.945Z,5.75
2019-02-23T11:43:05.015Z,4.60
2019-02-23T11:45:31.214Z,3.75
2019-02-23T11:47:57.401Z,3.52
2019-02-23T11:50:23.489Z,5.92
2019-02-23T11:52:49.810Z,3.60
2019-02-23T11:55:15.876Z,3.75
2019-02-23T11:57:41.982Z,4.85
2019-02-23T12:00:10.257Z,5.20
2019-02-23T12:02:36.381Z,3.75
2019-02-23T12:05:02.972Z,4.90
2019-02-23T12:07:29.126Z,4.00
2019-02-23T12:09:55.207Z,6.50
2019-02-23T12:12:21.293Z,6.03
2019-02-23T12:14:47.360Z,5.65
2019-02-23T12:17:13.454Z,7.90
2019-02-23T12:19:39.542Z,7.20
2019-02-23T12:22:12.280Z,7.10
2019-02-23T12:24:33.679Z,16.20
2019-02-23T12:26:59.748Z,4.65
2019-02-23T12:29:25.835Z,8.35
2019-02-23T12:31:51.895Z,6.40
2019-02-23T12:34:17.967Z,5.10
2019-02-23T12:36:44.047Z,6.50
2019-02-23T12:39:10.119Z,6.78
2019-02-23T12:41:36.211Z,6.10
2019-02-23T12:44:02.376Z,6.62
2019-02-23T12:46:28.466Z,5.35
2019-02-23T12:48:54.602Z,4.83
2019-02-23T12:51:20.772Z,5.20
2019-02-23T12:53:46.859Z,5.62
2019-02-23T12:56:12.976Z,6.33
2019-02-23T12:58:39.134Z,4.47
2019-02-23T13:01:05.245Z,9.20
2019-02-23T13:03:31.311Z,5.20
2019-02-23T13:05:57.382Z,5.90
2019-02-23T13:08:27.295Z,5.23
2019-02-23T13:10:53.441Z,7.20
2019-02-23T13:13:34.903Z,6.73
2019-02-23T13:16:13.628Z,6.13
2019-02-23T13:18:49.462Z,6.27
2019-02-23T13:21:40.522Z,5.63
2019-02-23T13:24:28.157Z,7.60
2019-02-23T13:27:14.908Z,6.17
2019-02-23T13:30:07.482Z,6.10
2019-02-23T13:32:49.785Z,6.00
2019-02-23T13:35:37.652Z,5.80
2019-02-23T13:38:16.032Z,6.77
2019-02-23T13:41:10.130Z,6.47
2019-02-23T13:43:45.807Z,8.63
2019-02-23T13:46:49.394Z,7.23
2019-02-23T13:49:24.977Z,5.93
2019-02-23T13:52:11.699Z,6.87
2019-02-23T13:55:02.407Z,6.40
2019-02-23T13:57:44.532Z,5.90
2019-02-23T14:00:19.688Z,17.60
2019-02-23T14:03:21.793Z,8.50
2019-02-23T14:06:17.803Z,7.20
2019-02-23T14:09:21.519Z,6.30
2019-02-23T14:12:11.355Z,6.23
2019-02-23T14:14:44.170Z,8.20
2019-02-23T14:17:34.018Z,7.73
2019-02-23T14:20:12.926Z,7.43
2019-02-23T14:23:06.898Z,7.77
2019-02-23T14:25:45.355Z,6.67
2019-02-23T14:28:24.447Z,5.70
2019-02-23T14:31:03.444Z,8.30
2019-02-23T14:33:45.106Z,6.60
2019-02-23T14:36:21.295Z,7.77
2019-02-23T14:39:09.520Z,8.20
2019-02-23T14:41:48.679Z,5.87
2019-02-23T14:44:18.660Z,6.50
2019-02-23T14:47:00.682Z,6.37
2019-02-23T14:49:53.049Z,6.50
2019-02-23T14:52:52.849Z,7.87
2019-02-23T14:55:25.532Z,5.97
2019-02-23T14:58:10.754Z,6.50
2019-02-23T15:00:43.165Z,7.43
2019-02-23T15:03:40.583Z,8.80
2019-02-23T15:06:38.191Z,7.53
2019-02-23T15:09:33.542Z,7.80
2019-02-23T15:12:09.199Z,7.77
2019-02-23T15:15:06.287Z,6.67
2019-02-23T15:17:42.383Z,5.70
2019-02-23T15:20:21.297Z,5.67
2019-02-23T15:22:56.945Z,6.63
2019-02-23T15:25:45.240Z,5.47
2019-02-23T15:28:39.571Z,9.13
2019-02-23T15:31:32.264Z,5.27
2019-02-23T15:34:14.271Z,7.03
2019-02-23T15:37:00.851Z,7.07
2019-02-23T15:39:49.224Z,5.27
2019-02-23T15:42:39.074Z,4.53
2019-02-23T15:45:25.992Z,11.48
2019-02-23T15:47:58.666Z,5.60
2019-02-23T15:50:24.907Z,7.15
2019-02-23T15:52:51.115Z,7.60
2019-02-23T15:55:25.684Z,6.93
2019-02-23T15:57:45.243Z,4.80
2019-02-23T16:00:11.605Z,4.80
2019-02-23T16:02:37.707Z,5.20
2019-02-23T16:05:04.178Z,7.50
2019-02-23T16:07:30.250Z,3.80
2019-02-23T16:09:56.399Z,4.23
2019-02-23T16:12:22.506Z,4.97
2019-02-23T16:14:48.592Z,6.90
2019-02-23T16:17:14.697Z,22.77
2019-02-23T16:19:40.868Z,8.13
2019-02-23T16:22:06.946Z,4.45
2019-02-23T16:24:33.015Z,3.98
2019-02-23T16:26:59.086Z,6.10
2019-02-23T16:29:25.166Z,4.10
2019-02-23T16:31:51.260Z,5.28
2019-02-23T16:34:17.346Z,5.03
2019-02-23T16:36:43.434Z,4.75
2019-02-23T16:39:09.933Z,7.90
2019-02-23T16:41:36.275Z,7.15
2019-02-23T16:44:02.373Z,5.95
2019-02-23T16:46:28.447Z,3.80
2019-02-23T16:48:54.542Z,5.50
2019-02-23T16:51:20.631Z,4.47
2019-02-23T16:53:48.872Z,4.85
2019-02-23T16:56:14.709Z,3.72
2019-02-23T16:58:40.840Z,5.30
2019-02-23T17:01:06.945Z,6.00
2019-02-23T17:03:32.999Z,7.20
2019-02-23T17:05:59.075Z,4.28
2019-02-23T17:08:25.144Z,4.37
2019-02-23T17:10:51.222Z,4.75
2019-02-23T17:13:17.291Z,7.50
2019-02-23T17:15:43.405Z,3.80
2019-02-23T17:18:09.471Z,3.83
2019-02-23T17:20:35.697Z,3.12
2019-02-23T17:23:02.260Z,3.72
2019-02-23T17:25:28.445Z,4.20
2019-02-23T17:27:54.591Z,4.42
2019-02-23T17:30:20.652Z,5.37
2019-02-23T17:32:46.724Z,3.25
2019-02-23T17:35:12.791Z,4.42
2019-02-23T17:37:38.899Z,4.47
2019-02-23T17:40:06.350Z,7.33
2019-02-23T17:42:32.402Z,3.30
2019-02-23T17:44:58.564Z,4.47
2019-02-23T17:47:24.675Z,3.45
2019-02-23T17:49:51.031Z,4.22
2019-02-23T17:52:17.132Z,2.08
2019-02-23T17:54:43.188Z,3.42
2019-02-23T17:57:09.419Z,2.87
2019-02-23T17:59:35.531Z,2.67
2019-02-23T18:02:01.615Z,5.15
2019-02-23T18:04:27.679Z,4.70
2019-02-23T18:06:53.743Z,2.60
2019-02-23T18:09:19.843Z,3.45
2019-02-23T18:11:45.986Z,1.92
2019-02-23T18:14:12.076Z,1.65
2019-02-23T18:16:38.153Z,2.22
2019-02-23T18:19:04.238Z,3.77
2019-02-23T18:21:30.437Z,2.62
2019-02-23T18:23:56.602Z,6.37
2019-02-23T18:26:22.805Z,3.80
2019-02-23T18:28:48.869Z,2.62
2019-02-23T18:31:14.937Z,3.75
2019-02-23T18:33:41.023Z,6.37
2019-02-23T18:36:07.117Z,4.75
2019-02-23T18:38:33.176Z,1.95
2019-02-23T18:40:59.251Z,3.95
2019-02-23T18:43:25.322Z,1.82
2019-02-23T18:45:51.410Z,1.85
2019-02-23T18:48:17.519Z,2.20
2019-02-23T18:50:43.602Z,4.65
2019-02-23T18:53:09.703Z,2.92
2019-02-23T18:55:41.195Z,4.97
2019-02-23T18:58:03.855Z,2.12
2019-02-23T19:00:29.935Z,3.00
2019-02-23T19:02:56.031Z,1.65
2019-02-23T19:05:22.110Z,4.78
2019-02-23T19:07:48.181Z,3.95
2019-02-23T19:10:14.248Z,2.47
2019-02-23T19:12:40.322Z,3.55
2019-02-23T19:15:09.275Z,1.57
2019-02-23T19:17:35.335Z,3.30
2019-02-23T19:20:01.501Z,2.27
2019-02-23T19:22:27.567Z,10.45
2019-02-23T19:24:53.634Z,2.67
2019-02-23T19:27:19.740Z,1.85
2019-02-23T19:29:45.790Z,4.35
2019-02-23T19:32:11.892Z,2.65
2019-02-23T19:34:37.987Z,1.40
2019-02-23T19:37:04.063Z,2.05
2019-02-23T19:39:30.127Z,4.28
2019-02-23T19:41:56.206Z,3.50
2019-02-23T19:44:22.275Z,3.33
2019-02-23T19:46:50.051Z,6.33
2019-02-23T19:49:16.209Z,1.98
2019-02-23T19:51:42.326Z,1.62
2019-02-23T19:54:08.495Z,3.12
2019-02-23T19:56:34.619Z,1.52
2019-02-23T19:59:00.901Z,2.02
2019-02-23T20:01:27.018Z,2.95
2019-02-23T20:03:53.131Z,2.52
2019-02-23T20:06:19.195Z,1.98
2019-02-23T20:08:45.598Z,3.02
2019-02-23T20:11:11.792Z,1.80
2019-02-23T20:13:37.871Z,2.33
2019-02-23T20:16:03.937Z,3.85
2019-02-23T20:18:30.014Z,1.40
2019-02-23T20:20:56.087Z,1.60
2019-02-23T20:23:22.163Z,3.27
2019-02-23T20:25:48.260Z,2.98
2019-02-23T20:28:14.438Z,1.70
2019-02-23T20:31:00.387Z,3.65
2019-02-23T20:33:26.471Z,1.62
2019-02-23T20:35:52.539Z,2.35
2019-02-23T20:38:18.611Z,2.15
2019-02-23T20:40:44.686Z,3.05
2019-02-23T20:43:10.777Z,3.02
2019-02-23T20:45:36.905Z,1.98
2019-02-23T20:48:03.077Z,3.85
2019-02-23T20:50:29.156Z,2.70
2019-02-23T20:52:55.356Z,2.47
2019-02-23T20:55:21.416Z,2.20
2019-02-23T20:57:47.599Z,2.00
2019-02-23T21:00:13.766Z,3.40
2019-02-23T21:02:39.882Z,2.80
2019-02-23T21:05:08.914Z,2.02
2019-02-23T21:07:35.195Z,3.72
2019-02-23T21:10:01.368Z,1.65
2019-02-23T21:12:27.436Z,4.72
2019-02-23T21:14:53.526Z,3.42
2019-02-23T21:17:19.588Z,1.45
2019-02-23T21:19:45.662Z,1.30
2019-02-23T21:22:11.760Z,9.13
2019-02-23T21:24:37.839Z,2.98
2019-02-23T21:27:03.919Z,3.02
2019-02-23T21:29:30.000Z,4.92
2019-02-23T21:31:56.099Z,2.92
2019-02-23T21:34:22.173Z,5.15
2019-02-23T21:36:48.243Z,5.42
2019-02-23T21:39:14.335Z,3.08
2019-02-23T21:41:40.399Z,7.08
2019-02-23T21:44:06.482Z,5.80
2019-02-23T21:46:32.548Z,2.05
2019-02-23T21:48:58.634Z,3.02
2019-02-23T21:51:24.698Z,2.75
2019-02-23T21:53:50.809Z,2.47
2019-02-23T21:56:16.912Z,2.10
2019-02-23T21:58:43.091Z,2.90
2019-02-23T22:01:09.155Z,1.95
2019-02-23T22:03:35.241Z,2.15
2019-02-23T22:06:01.305Z,2.20
2019-02-23T22:08:27.470Z,2.90
2019-02-23T22:10:53.559Z,3.55
2019-02-23T22:13:19.628Z,2.08
2019-02-23T22:15:45.721Z,2.55
2019-02-23T22:18:11.798Z,2.55
2019-02-23T22:20:37.851Z,2.25
2019-02-23T22:23:03.979Z,2.10
2019-02-23T22:25:30.120Z,1.30
2019-02-23T22:27:56.233Z,3.52
2019-02-23T22:30:22.403Z,2.85
2019-02-23T22:32:48.573Z,3.08
2019-02-23T22:35:14.759Z,2.85
2019-02-23T22:37:40.907Z,2.33
2019-02-23T22:40:07.008Z,2.37
2019-02-23T22:42:33.070Z,6.42
2019-02-23T22:44:59.146Z,2.25
2019-02-23T22:47:25.226Z,3.20
2019-02-23T22:49:51.323Z,3.10
2019-02-23T22:52:17.411Z,6.08
2019-02-23T22:54:43.486Z,2.85
2019-02-23T22:57:09.550Z,1.98
2019-02-23T22:59:35.631Z,2.30
2019-02-23T23:02:01.692Z,3.10
2019-02-23T23:04:27.791Z,3.62
2019-02-23T23:06:53.875Z,5.42
2019-02-23T23:09:20.152Z,2.10
2019-02-23T23:11:46.255Z,4.40
2019-02-23T23:14:12.307Z,2.70
2019-02-23T23:16:38.397Z,3.37
2019-02-23T23:19:04.651Z,4.28
2019-02-23T23:21:30.733Z,6.28
2019-02-23T23:23:56.787Z,4.90
2019-02-23T23:26:22.876Z,3.17
2019-02-23T23:28:48.945Z,3.05
2019-02-23T23:31:15.131Z,3.08
2019-02-23T23:33:41.195Z,4.47
2019-02-23T23:36:07.271Z,5.08
2019-02-23T23:38:33.352Z,5.70
2019-02-23T23:40:59.430Z,3.05
2019-02-23T23:43:25.499Z,7.28
2019-02-23T23:45:51.578Z,3.55
2019-02-23T23:48:17.647Z,4.03
2019-02-23T23:50:43.724Z,1.90
2019-02-23T23:53:09.787Z,5.47
2019-02-23T23:55:35.883Z,2.60
2019-02-23T23:58:01.953Z,2.50
